BIKF/KEF METAR and TAF weather

Enter ICAO airport designator
Station Type Date Time Source
BIKF METAR 2019/08/24 09:00 UTC NOAA

BIKF 240900Z 21005KT 9999 FEW020 SCT042 BKN065 11/09 Q1012


Station Type Date Time Source
BIKF Decoded METAR 2019/08/24 09:00 UTC NOAA

Station name not available
Aug 24, 2019 - 05:00 AM EDT / 2019.08.24 0900 UTC
Wind: from the SSW (210 degrees) at 6 MPH (5 KT):0
Visibility: greater than 7 mile(s):0
Sky conditions: mostly cloudy
Temperature: 51 F (11 C)
Dew Point: 48 F (9 C)
Relative Humidity: 87%
Pressure (altimeter): 29.88 in. Hg (1012 hPa)
ob: BIKF 240900Z 21005KT 9999 FEW020 SCT042 BKN065 11/09 Q1012
cycle: 9

Station Type Date Time Source
BIKF TAF 2019/08/24 09:03 UTC NOAA

TAF BIKF 240758Z 2409/2509 VRB02KT 9999 SCT023 BKN030 TX13/2413Z TN08/2505Z
BECMG 2409/2412 30012KT
BECMG 2421/2500 VRB02KT
BECMG 2502/2505 15012KT
BECMG 2507/2509 12017G27KT

Example: see airport list